Time;durP1;ratioP1;P1;durP2;ratioP2;P2;SDS_P1;SDS_P2;PMS_P1;PMS_P2;Temp;Humidity;BMP_temperature;BMP_pressure;BME280_temperature;BME280_humidity;BME280_pressure;Samples;Min_cycle;Max_cycle;Signal;HPM_P1;HPM_P2
2022/01/11 00:01:55;;;;;;;;;;;;;;;;;;5094904;28;19916;-82
2022/01/11 00:04:28;;;;;;;;;;;;;;;;;;5094797;28;19916;-81
2022/01/11 00:06:53;;;;;;;;;;;;;;;;;;5094975;28;19920;-82
2022/01/11 00:09:37;;;;;;;;;;;;;;;;;;5094013;28;20272;-81
2022/01/11 00:12:06;;;;;;;;;;;;;;;;;;5093506;28;19916;-81
2022/01/11 00:14:32;;;;;;;;;;;;;;;;;;5094728;28;19917;-82
2022/01/11 00:16:59;;;;;;;;;;;;;;;;;;5094778;28;20420;-81
2022/01/11 00:19:24;;;;;;;;;;;;;;;;;;5094666;28;20016;-81
2022/01/11 00:21:50;;;;;;;;;;;;;;;;;;5094690;28;19970;-81
2022/01/11 00:24:36;;;;;;;;;;;;;;;;;;5094395;28;19996;-82
2022/01/11 00:27:06;;;;;;;;;;;;;;;;;;5094613;28;20451;-82
2022/01/11 00:29:32;;;;;;;;;;;;;;;;;;5094613;28;19956;-81
2022/01/11 00:32:04;;;;;;;;;;;;;;;;;;5094372;28;20375;-82
2022/01/11 00:34:39;;;;;;;;;;;;;;;;;;5094478;28;19920;-81
2022/01/11 00:37:05;;;;;;;;;;;;;;;;;;5093925;28;19952;-81
2022/01/11 00:39:31;;;;;;;;;;;;;;;;;;5094494;28;19963;-82
2022/01/11 00:41:56;;;;;;;;;;;;;;;;;;5094180;28;19916;-82
2022/01/11 00:44:23;;;;;;;;;;;;;;;;;;5094459;28;20383;-81
2022/01/11 00:46:48;;;;;;;;;;;;;;;;;;5094189;28;19976;-83
2022/01/11 00:49:14;;;;;;;;;;;;;;;;;;5094507;28;20387;-82
2022/01/11 00:51:39;;;;;;;;;;;;;;;;;;5094179;28;20268;-81
2022/01/11 00:54:05;;;;;;;;;;;;;;;;;;5093990;28;19963;-81
2022/01/11 00:56:30;;;;;;;;;;;;;;;;;;5094091;28;19939;-81
2022/01/11 00:58:56;;;;;;;;;;;;;;;;;;5093779;28;19920;-81
2022/01/11 01:01:21;;;;;;;;;;;;;;;;;;5094100;28;19917;-81
2022/01/11 01:03:47;;;;;;;;;;;;;;;;;;5094016;28;19920;-81
2022/01/11 01:06:12;;;;;;;;;;;;;;;;;;5092479;28;20270;-81
2022/01/11 01:08:40;;;;;;;;;;;;;;;;;;5093136;28;21833;-82
2022/01/11 01:11:05;;;;;;;;;;;;;;;;;;5093905;28;19916;-81
2022/01/11 01:13:30;;;;;;;;;;;;;;;;;;5093891;28;19916;-81
2022/01/11 01:15:56;;;;;;;;;;;;;;;;;;5093821;28;19970;-82
2022/01/11 01:18:26;;;;;;;;;;;;;;;;;;5093689;28;20333;-82
2022/01/11 01:20:52;;;;;;;;;;;;;;;;;;5097226;28;19938;-81
2022/01/11 01:23:18;;;;;;;;;;;;;;;;;;5098114;28;19923;-83
2022/01/11 01:25:45;;;;;;;;;;;;;;;;;;5097906;28;19916;-81
2022/01/11 01:28:11;;;;;;;;;;;;;;;;;;5096240;28;19963;-82
2022/01/11 01:30:37;;;;;;;;;;;;;;;;;;5097909;28;19919;-81
2022/01/11 01:33:03;;;;;;;;;;;;;;;;;;5096939;28;19976;-83
2022/01/11 01:35:34;;;;;;;;;;;;;;;;;;5097878;28;19915;-80
2022/01/11 01:38:00;;;;;;;;;;;;;;;;;;5097665;28;19917;-81
2022/01/11 01:40:26;;;;;;;;;;;;;;;;;;5096441;28;19920;-80
2022/01/11 01:42:52;;;;;;;;;;;;;;;;;;5097751;28;19920;-81
2022/01/11 01:45:23;;;;;;;;;;;;;;;;;;5097627;28;19920;-82
2022/01/11 01:47:52;;;;;;;;;;;;;;;;;;5097596;28;19916;-82
2022/01/11 01:50:18;;;;;;;;;;;;;;;;;;5097513;28;19922;-81
2022/01/11 01:52:43;;;;;;;;;;;;;;;;;;5097523;28;20006;-82
2022/01/11 01:55:09;;;;;;;;;;;;;;;;;;5097430;28;20007;-81
2022/01/11 01:57:35;;;;;;;;;;;;;;;;;;5097073;28;19962;-82
2022/01/11 02:00:07;;;;;;;;;;;;;;;;;;5097097;28;19920;-81
2022/01/11 02:02:35;;;;;;;;;;;;;;;;;;5097440;28;19920;-81
2022/01/11 02:05:02;;;;;;;;;;;;;;;;;;5097232;28;20334;-82
2022/01/11 02:07:27;;;;;;;;;;;;;;;;;;5097158;28;19923;-81
2022/01/11 02:09:52;;;;;;;;;;;;;;;;;;5097181;28;20265;-82
2022/01/11 02:12:18;;;;;;;;;;;;;;;;;;5096993;28;19917;-82
2022/01/11 02:14:43;;;;;;;;;;;;;;;;;;5097369;28;19916;-81
2022/01/11 02:17:09;;;;;;;;;;;;;;;;;;5097057;28;19942;-82
2022/01/11 02:19:34;;;;;;;;;;;;;;;;;;5097055;28;20381;-81
2022/01/11 02:22:00;;;;;;;;;;;;;;;;;;5096866;28;20045;-81
2022/01/11 02:24:27;;;;;;;;;;;;;;;;;;5078573;28;19916;-81
2022/01/11 02:26:52;;;;;;;;;;;;;;;;;;5097203;28;19923;-81
2022/01/11 02:29:18;;;;;;;;;;;;;;;;;;5096433;28;19923;-82
2022/01/11 02:31:43;;;;;;;;;;;;;;;;;;5095856;28;19916;-81
2022/01/11 02:34:09;;;;;;;;;;;;;;;;;;5096677;28;19920;-82
2022/01/11 02:36:36;;;;;;;;;;;;;;;;;;5097138;28;19916;-81
2022/01/11 02:39:02;;;;;;;;;;;;;;;;;;5096599;28;19954;-81
2022/01/11 02:41:28;;;;;;;;;;;;;;;;;;5096597;28;19920;-81
2022/01/11 02:43:54;;;;;;;;;;;;;;;;;;5096334;28;19917;-81
2022/01/11 02:46:20;;;;;;;;;;;;;;;;;;5096343;28;19916;-81
2022/01/11 02:48:46;;;;;;;;;;;;;;;;;;5096376;28;20010;-80
2022/01/11 02:51:12;;;;;;;;;;;;;;;;;;5096319;28;20018;-81
2022/01/11 02:53:39;;;;;;;;;;;;;;;;;;5096338;28;19916;-81
2022/01/11 02:56:04;;;;;;;;;;;;;;;;;;5096564;28;20396;-80
2022/01/11 02:58:30;;;;;;;;;;;;;;;;;;5077913;28;19928;-82
2022/01/11 03:00:55;;;;;;;;;;;;;;;;;;5096298;28;20364;-81
2022/01/11 03:03:22;;;;;;;;;;;;;;;;;;5096365;28;19985;-81
2022/01/11 03:05:49;;;;;;;;;;;;;;;;;;5096063;28;20287;-81
2022/01/11 03:08:16;;;;;;;;;;;;;;;;;;5095955;28;19971;-81
2022/01/11 03:10:41;;;;;;;;;;;;;;;;;;5096070;28;19916;-82
2022/01/11 03:13:07;;;;;;;;;;;;;;;;;;5095987;28;20355;-81
2022/01/11 03:15:34;;;;;;;;;;;;;;;;;;5095913;28;19962;-81
2022/01/11 03:17:59;;;;;;;;;;;;;;;;;;5095794;28;20343;-82
2022/01/11 03:20:24;;;;;;;;;;;;;;;;;;5095843;28;19951;-82
2022/01/11 03:22:50;;;;;;;;;;;;;;;;;;5095975;28;19916;-81
2022/01/11 03:25:17;;;;;;;;;;;;;;;;;;5095298;28;19916;-81
2022/01/11 03:27:43;;;;;;;;;;;;;;;;;;5095637;28;19918;-81
2022/01/11 03:30:08;;;;;;;;;;;;;;;;;;5095506;28;20291;-81
2022/01/11 03:32:34;;;;;;;;;;;;;;;;;;5077438;28;19922;-82
2022/01/11 03:35:00;;;;;;;;;;;;;;;;;;5095499;28;19923;-81
2022/01/11 03:37:25;;;;;;;;;;;;;;;;;;5095521;28;19923;-81
2022/01/11 03:39:51;;;;;;;;;;;;;;;;;;5095401;28;19971;-82
2022/01/11 03:42:16;;;;;;;;;;;;;;;;;;5077247;28;19959;-81
2022/01/11 03:44:42;;;;;;;;;;;;;;;;;;5095299;28;20363;-81
2022/01/11 03:47:07;;;;;;;;;;;;;;;;;;5095268;28;20368;-81
2022/01/11 03:49:33;;;;;;;;;;;;;;;;;;5095300;28;19916;-81
2022/01/11 03:51:58;;;;;;;;;;;;;;;;;;5095157;28;19916;-82
2022/01/11 03:54:27;;;;;;;;;;;;;;;;;;5095148;28;19916;-81
2022/01/11 03:56:53;;;;;;;;;;;;;;;;;;5095085;28;19916;-81
2022/01/11 03:59:19;;;;;;;;;;;;;;;;;;5094745;28;20303;-82
2022/01/11 04:01:44;;;;;;;;;;;;;;;;;;5094753;28;19920;-82
2022/01/11 04:04:10;;;;;;;;;;;;;;;;;;5094889;28;20360;-81
2022/01/11 04:06:37;;;;;;;;;;;;;;;;;;5094557;28;19924;-81
2022/01/11 04:09:03;;;;;;;;;;;;;;;;;;5093655;28;19920;-82
2022/01/11 04:11:29;;;;;;;;;;;;;;;;;;5094916;28;19920;-80
2022/01/11 04:13:54;;;;;;;;;;;;;;;;;;5094755;28;20368;-80
2022/01/11 04:16:20;;;;;;;;;;;;;;;;;;5093353;28;19947;-81
2022/01/11 04:18:45;;;;;;;;;;;;;;;;;;5094980;28;20367;-81
2022/01/11 04:21:11;;;;;;;;;;;;;;;;;;5094695;28;20380;-81
2022/01/11 04:23:36;;;;;;;;;;;;;;;;;;5094535;28;19916;-81
2022/01/11 04:26:02;;;;;;;;;;;;;;;;;;5093984;28;20291;-81
2022/01/11 04:28:28;;;;;;;;;;;;;;;;;;5094657;28;19999;-80
2022/01/11 04:30:57;;;;;;;;;;;;;;;;;;5093809;28;20005;-81
2022/01/11 04:33:24;;;;;;;;;;;;;;;;;;5094081;28;19973;-81
2022/01/11 04:35:49;;;;;;;;;;;;;;;;;;5076154;28;20356;-82
2022/01/11 04:38:22;;;;;;;;;;;;;;;;;;5094302;28;19955;-80
2022/01/11 04:40:48;;;;;;;;;;;;;;;;;;5094562;28;20320;-81
2022/01/11 04:43:13;;;;;;;;;;;;;;;;;;5094416;28;19966;-80
2022/01/11 04:45:39;;;;;;;;;;;;;;;;;;5093823;28;20352;-82
2022/01/11 04:48:04;;;;;;;;;;;;;;;;;;5093738;28;19973;-79
2022/01/11 04:50:30;;;;;;;;;;;;;;;;;;5094100;28;19963;-78
2022/01/11 04:52:57;;;;;;;;;;;;;;;;;;5094067;28;19920;-80
2022/01/11 04:55:22;;;;;;;;;;;;;;;;;;5093823;28;19916;-80
2022/01/11 04:57:48;;;;;;;;;;;;;;;;;;5093991;28;19923;-80
2022/01/11 05:00:15;;;;;;;;;;;;;;;;;;5093730;28;19972;-79
2022/01/11 05:02:40;;;;;;;;;;;;;;;;;;5094010;28;19916;-81
2022/01/11 05:05:06;;;;;;;;;;;;;;;;;;5093923;28;20256;-81
2022/01/11 05:07:31;;;;;;;;;;;;;;;;;;5093984;28;20354;-81
2022/01/11 05:09:57;;;;;;;;;;;;;;;;;;5075809;28;19915;-81
2022/01/11 05:12:22;;;;;;;;;;;;;;;;;;5093741;28;20429;-80
2022/01/11 05:14:48;;;;;;;;;;;;;;;;;;5093591;28;20295;-80
2022/01/11 05:17:14;;;;;;;;;;;;;;;;;;5094162;28;20271;-82
2022/01/11 05:19:39;;;;;;;;;;;;;;;;;;5093841;28;19916;-80
2022/01/11 05:22:05;;;;;;;;;;;;;;;;;;5092083;28;19919;-82
2022/01/11 05:24:30;;;;;;;;;;;;;;;;;;5075127;28;20368;-79
2022/01/11 05:26:56;;;;;;;;;;;;;;;;;;5093555;28;19921;-80
2022/01/11 05:29:21;;;;;;;;;;;;;;;;;;5093741;28;19916;-80
2022/01/11 05:31:46;;;;;;;;;;;;;;;;;;5093636;28;19916;-80
2022/01/11 05:34:12;;;;;;;;;;;;;;;;;;5093629;28;19961;-80
2022/01/11 05:36:37;;;;;;;;;;;;;;;;;;5093697;28;19916;-79
2022/01/11 05:39:03;;;;;;;;;;;;;;;;;;5093799;28;19924;-83
2022/01/11 05:41:32;;;;;;;;;;;;;;;;;;5093491;28;19920;-80
2022/01/11 05:43:57;;;;;;;;;;;;;;;;;;5093430;28;20054;-81
2022/01/11 05:46:23;;;;;;;;;;;;;;;;;;5093478;28;20011;-79
2022/01/11 05:48:48;;;;;;;;;;;;;;;;;;5093245;28;19927;-81
2022/01/11 05:51:15;;;;;;;;;;;;;;;;;;5092257;28;20350;-80
2022/01/11 05:53:41;;;;;;;;;;;;;;;;;;5093507;28;19923;-80
2022/01/11 05:56:06;;;;;;;;;;;;;;;;;;5093183;28;20267;-82
2022/01/11 05:58:32;;;;;;;;;;;;;;;;;;5093368;28;19916;-80
2022/01/11 06:00:57;;;;;;;;;;;;;;;;;;5093376;28;19916;-81
2022/01/11 06:03:22;;;;;;;;;;;;;;;;;;5093317;28;19961;-80
2022/01/11 06:05:48;;;;;;;;;;;;;;;;;;5093385;28;19961;-81
2022/01/11 06:08:16;;;;;;;;;;;;;;;;;;5097055;28;19916;-82
2022/01/11 06:10:43;;;;;;;;;;;;;;;;;;5097096;28;19916;-80
2022/01/11 06:13:09;;;;;;;;;;;;;;;;;;5097062;28;19917;-79
2022/01/11 06:15:34;;;;;;;;;;;;;;;;;;5078963;28;20360;-80
2022/01/11 06:17:59;;;;;;;;;;;;;;;;;;5097003;28;19923;-82
2022/01/11 06:20:25;;;;;;;;;;;;;;;;;;5097039;28;19924;-80
2022/01/11 06:22:51;;;;;;;;;;;;;;;;;;5097147;28;20057;-82
2022/01/11 06:25:16;;;;;;;;;;;;;;;;;;5096880;28;19927;-81
2022/01/11 06:27:42;;;;;;;;;;;;;;;;;;5096798;28;19916;-83
2022/01/11 06:30:09;;;;;;;;;;;;;;;;;;5096709;28;20448;-80
2022/01/11 06:32:34;;;;;;;;;;;;;;;;;;5096764;28;19916;-83
2022/01/11 06:34:59;;;;;;;;;;;;;;;;;;5096775;28;20282;-81
2022/01/11 06:37:25;;;;;;;;;;;;;;;;;;5096798;28;19916;-81
2022/01/11 06:39:50;;;;;;;;;;;;;;;;;;5096351;28;19916;-82
2022/01/11 06:42:16;;;;;;;;;;;;;;;;;;5096472;28;19927;-85
2022/01/11 06:44:43;;;;;;;;;;;;;;;;;;5078299;28;19993;-83
2022/01/11 06:47:08;;;;;;;;;;;;;;;;;;5096534;28;19967;-86
2022/01/11 06:49:34;;;;;;;;;;;;;;;;;;5096487;28;20330;-80
2022/01/11 06:51:59;;;;;;;;;;;;;;;;;;5096212;28;19920;-84
2022/01/11 06:54:24;;;;;;;;;;;;;;;;;;5096338;28;20003;-82
2022/01/11 06:56:50;;;;;;;;;;;;;;;;;;5096167;28;20287;-84
2022/01/11 06:59:15;;;;;;;;;;;;;;;;;;5095922;28;19920;-83
2022/01/11 07:01:41;;;;;;;;;;;;;;;;;;5095889;28;19964;-81
2022/01/11 07:04:06;;;;;;;;;;;;;;;;;;5095942;28;19952;-81
2022/01/11 07:06:32;;;;;;;;;;;;;;;;;;5095967;28;20427;-80
2022/01/11 07:08:57;;;;;;;;;;;;;;;;;;5095769;28;20367;-80
2022/01/11 07:11:24;;;;;;;;;;;;;;;;;;5095639;28;19916;-84
2022/01/11 07:13:49;;;;;;;;;;;;;;;;;;5095728;28;19920;-81
2022/01/11 07:16:15;;;;;;;;;;;;;;;;;;5095704;28;20407;-81
2022/01/11 07:18:40;;;;;;;;;;;;;;;;;;5095277;28;19917;-80
2022/01/11 07:21:06;;;;;;;;;;;;;;;;;;5095570;28;19916;-80
2022/01/11 07:23:31;;;;;;;;;;;;;;;;;;5095544;28;19922;-81
2022/01/11 07:25:57;;;;;;;;;;;;;;;;;;5095645;28;19916;-79
2022/01/11 07:28:23;;;;;;;;;;;;;;;;;;5095364;28;20007;-80
2022/01/11 07:30:49;;;;;;;;;;;;;;;;;;5095338;28;19923;-80
2022/01/11 07:33:15;;;;;;;;;;;;;;;;;;5095456;28;20333;-79
2022/01/11 07:35:40;;;;;;;;;;;;;;;;;;5095255;28;19917;-80
2022/01/11 07:38:06;;;;;;;;;;;;;;;;;;5095099;28;19959;-79
2022/01/11 07:40:31;;;;;;;;;;;;;;;;;;5095405;28;19916;-80
2022/01/11 07:42:56;;;;;;;;;;;;;;;;;;5095069;28;19916;-79
2022/01/11 07:45:22;;;;;;;;;;;;;;;;;;5095091;28;19916;-80
2022/01/11 07:47:47;;;;;;;;;;;;;;;;;;5094682;28;19999;-79
2022/01/11 07:50:13;;;;;;;;;;;;;;;;;;5094574;28;19923;-79
2022/01/11 07:52:39;;;;;;;;;;;;;;;;;;5094661;28;19920;-81
2022/01/11 07:55:05;;;;;;;;;;;;;;;;;;5094800;28;19923;-83
2022/01/11 07:57:30;;;;;;;;;;;;;;;;;;5094712;28;19995;-80
2022/01/11 07:59:56;;;;;;;;;;;;;;;;;;5094823;28;20120;-82
2022/01/11 08:02:23;;;;;;;;;;;;;;;;;;5076569;28;20007;-80
2022/01/11 08:04:49;;;;;;;;;;;;;;;;;;5094729;28;19916;-82
2022/01/11 08:07:14;;;;;;;;;;;;;;;;;;5094752;28;19923;-80
2022/01/11 08:09:40;;;;;;;;;;;;;;;;;;5094682;28;19916;-83
2022/01/11 08:12:05;;;;;;;;;;;;;;;;;;5094456;28;20008;-84
2022/01/11 08:14:31;;;;;;;;;;;;;;;;;;5094636;28;19952;-79
2022/01/11 08:16:56;;;;;;;;;;;;;;;;;;5094294;28;19923;-80
2022/01/11 08:19:25;;;;;;;;;;;;;;;;;;5094465;28;19922;-81
2022/01/11 08:21:54;;;;;;;;;;;;;;;;;;5094044;28;20347;-81
2022/01/11 08:24:22;;;;;;;;;;;;;;;;;;5094302;28;19931;-82
2022/01/11 08:26:48;;;;;;;;;;;;;;;;;;5094425;28;20006;-81
2022/01/11 08:29:14;;;;;;;;;;;;;;;;;;5093624;28;20431;-80
2022/01/11 08:31:39;;;;;;;;;;;;;;;;;;5094152;28;19927;-80
2022/01/11 08:34:11;;;;;;;;;;;;;;;;;;5094052;28;20007;-80
2022/01/11 08:36:37;;;;;;;;;;;;;;;;;;5094345;28;20288;-80
2022/01/11 08:39:02;;;;;;;;;;;;;;;;;;5094456;28;19923;-84
2022/01/11 08:41:28;;;;;;;;;;;;;;;;;;5094513;28;20015;-80
2022/01/11 08:43:53;;;;;;;;;;;;;;;;;;5093931;28;19923;-80
2022/01/11 08:46:19;;;;;;;;;;;;;;;;;;5076014;28;19947;-79
2022/01/11 08:48:44;;;;;;;;;;;;;;;;;;5093999;28;19959;-79
2022/01/11 08:51:10;;;;;;;;;;;;;;;;;;5093869;28;19916;-82
2022/01/11 08:53:35;;;;;;;;;;;;;;;;;;5093410;28;19916;-82
2022/01/11 08:56:00;;;;;;;;;;;;;;;;;;5093937;28;19916;-83
2022/01/11 08:58:26;;;;;;;;;;;;;;;;;;5093968;28;19916;-83
2022/01/11 09:00:51;;;;;;;;;;;;;;;;;;5093552;28;19920;-79
2022/01/11 09:03:17;;;;;;;;;;;;;;;;;;5093576;28;20015;-78
2022/01/11 09:05:43;;;;;;;;;;;;;;;;;;5093858;28;19922;-79
2022/01/11 09:08:09;;;;;;;;;;;;;;;;;;5093509;28;20559;-79
2022/01/11 09:10:35;;;;;;;;;;;;;;;;;;5093719;28;20346;-80
2022/01/11 09:13:00;;;;;;;;;;;;;;;;;;5093835;28;19966;-80
2022/01/11 09:15:26;;;;;;;;;;;;;;;;;;5093481;28;19916;-80
2022/01/11 09:17:51;;;;;;;;;;;;;;;;;;5093707;28;19917;-80
2022/01/11 09:20:17;;;;;;;;;;;;;;;;;;5093751;28;19920;-81
2022/01/11 09:22:43;;;;;;;;;;;;;;;;;;5093335;28;19916;-79
2022/01/11 09:25:10;;;;;;;;;;;;;;;;;;5093345;28;20105;-82
2022/01/11 09:27:36;;;;;;;;;;;;;;;;;;5093474;28;19916;-79
2022/01/11 09:30:02;;;;;;;;;;;;;;;;;;5093488;28;20041;-83
2022/01/11 09:32:28;;;;;;;;;;;;;;;;;;5093157;28;19941;-85
2022/01/11 09:34:53;;;;;;;;;;;;;;;;;;5093205;28;19916;-81
2022/01/11 09:37:19;;;;;;;;;;;;;;;;;;5093110;28;19924;-84
2022/01/11 09:39:45;;;;;;;;;;;;;;;;;;5093546;28;19961;-81
2022/01/11 09:42:10;;;;;;;;;;;;;;;;;;5079195;28;19968;-84
2022/01/11 09:44:39;;;;;;;;;;;;;;;;;;5096734;28;19926;-82
2022/01/11 09:47:06;;;;;;;;;;;;;;;;;;5096920;28;20272;-82
2022/01/11 09:49:32;;;;;;;;;;;;;;;;;;5094477;28;19917;-82
2022/01/11 09:51:57;;;;;;;;;;;;;;;;;;5096794;28;19922;-82
2022/01/11 09:54:24;;;;;;;;;;;;;;;;;;5097147;28;19920;-83
2022/01/11 09:56:49;;;;;;;;;;;;;;;;;;5096639;28;19931;-82
2022/01/11 09:59:15;;;;;;;;;;;;;;;;;;5096574;28;19924;-83
2022/01/11 10:01:41;;;;;;;;;;;;;;;;;;5095714;28;20371;-85
2022/01/11 10:04:08;;;;;;;;;;;;;;;;;;5095819;28;19923;-85
2022/01/11 10:06:35;;;;;;;;;;;;;;;;;;5095836;28;19974;-81
2022/01/11 10:09:11;;;;;;;;;;;;;;;;;;5095850;28;20418;-84
2022/01/11 10:11:37;;;;;;;;;;;;;;;;;;5077728;28;19976;-86
2022/01/11 10:14:24;;;;;;;;;;;;;;;;;;5095732;28;19916;-84
2022/01/11 10:16:50;;;;;;;;;;;;;;;;;;5076633;28;19920;-85
2022/01/11 10:19:24;;;;;;;;;;;;;;;;;;5076462;28;19923;-83
2022/01/11 10:21:50;;;;;;;;;;;;;;;;;;5079770;28;19935;-82
2022/01/11 10:24:32;;;;;;;;;;;;;;;;;;5095562;28;19924;-82
2022/01/11 10:26:58;;;;;;;;;;;;;;;;;;5090493;28;20395;-85
2022/01/11 10:29:29;;;;;;;;;;;;;;;;;;5095222;28;19916;-80
2022/01/11 10:31:55;;;;;;;;;;;;;;;;;;5095712;28;20351;-80
2022/01/11 10:34:25;;;;;;;;;;;;;;;;;;5095015;28;19916;-81
2022/01/11 10:36:50;;;;;;;;;;;;;;;;;;5095250;28;19920;-85
2022/01/11 10:39:32;;;;;;;;;;;;;;;;;;5095826;28;20360;-83
2022/01/11 10:41:58;;;;;;;;;;;;;;;;;;5095755;28;20341;-82
2022/01/11 10:44:42;;;;;;;;;;;;;;;;;;5096369;28;19916;-81
2022/01/11 10:47:07;;;;;;;;;;;;;;;;;;5075851;28;19916;-85
2022/01/11 10:49:35;;;;;;;;;;;;;;;;;;5087998;28;19916;-82
2022/01/11 10:52:39;;;;;;;;;;;;;;;;;;5075281;28;19917;-83
2022/01/11 10:55:05;;;;;;;;;;;;;;;;;;5029181;28;20011;-83
2022/01/11 10:57:32;;;;;;;;;;;;;;;;;;5033527;28;19968;-83
2022/01/11 11:00:10;;;;;;;;;;;;;;;;;;5032695;28;19921;-81
2022/01/11 11:02:36;;;;;;;;;;;;;;;;;;5032003;28;19928;-83
2022/01/11 11:05:10;;;;;;;;;;;;;;;;;;5032752;28;19931;-83
2022/01/11 11:07:36;;;;;;;;;;;;;;;;;;5030636;28;20331;-85
2022/01/11 11:10:01;;;;;;;;;;;;;;;;;;5031984;28;19914;-83
2022/01/11 11:12:27;;;;;;;;;;;;;;;;;;5033047;28;19964;-81
2022/01/11 11:14:53;;;;;;;;;;;;;;;;;;5033363;28;19923;-82
2022/01/11 11:17:25;;;;;;;;;;;;;;;;;;5031721;28;20007;-82
2022/01/11 11:20:05;;;;;;;;;;;;;;;;;;5032161;28;19924;-82
2022/01/11 11:22:31;;;;;;;;;;;;;;;;;;5030696;28;20003;-82
2022/01/11 11:24:57;;;;;;;;;;;;;;;;;;5042142;28;20444;-81
2022/01/11 11:27:24;;;;;;;;;;;;;;;;;;5095352;28;19963;-84
2022/01/11 11:29:50;;;;;;;;;;;;;;;;;;5095356;28;19929;-81
2022/01/11 11:32:17;;;;;;;;;;;;;;;;;;5095716;28;20348;-82
2022/01/11 11:34:44;;;;;;;;;;;;;;;;;;5077111;28;19958;-81
2022/01/11 11:37:11;;;;;;;;;;;;;;;;;;5095188;28;20451;-82
2022/01/11 11:39:36;;;;;;;;;;;;;;;;;;5095392;28;19916;-81
2022/01/11 11:42:04;;;;;;;;;;;;;;;;;;5093491;28;20260;-79
2022/01/11 11:44:34;;;;;;;;;;;;;;;;;;5074868;28;19920;-79
2022/01/11 11:47:01;;;;;;;;;;;;;;;;;;5074805;28;19920;-83
2022/01/11 11:49:45;;;;;;;;;;;;;;;;;;5075289;28;20335;-81
2022/01/11 11:52:22;;;;;;;;;;;;;;;;;;5092149;28;19962;-80
2022/01/11 11:54:48;;;;;;;;;;;;;;;;;;5093452;28;19927;-80
2022/01/11 11:57:14;;;;;;;;;;;;;;;;;;5076024;28;19972;-80
2022/01/11 11:59:40;;;;;;;;;;;;;;;;;;5094103;28;20379;-82
2022/01/11 12:02:06;;;;;;;;;;;;;;;;;;5094481;28;19969;-80
2022/01/11 12:04:31;;;;;;;;;;;;;;;;;;5093817;28;20011;-81
2022/01/11 12:06:57;;;;;;;;;;;;;;;;;;5076301;28;20288;-81
2022/01/11 12:09:28;;;;;;;;;;;;;;;;;;5094653;28;19951;-81
2022/01/11 12:11:54;;;;;;;;;;;;;;;;;;5093868;28;19943;-81
2022/01/11 12:14:29;;;;;;;;;;;;;;;;;;5093053;28;20380;-81
2022/01/11 12:16:55;;;;;;;;;;;;;;;;;;5091000;28;19916;-81
2022/01/11 12:19:39;;;;;;;;;;;;;;;;;;5093184;28;19917;-82
2022/01/11 12:22:07;;;;;;;;;;;;;;;;;;5091795;28;19916;-82
2022/01/11 12:24:37;;;;;;;;;;;;;;;;;;5090759;28;19920;-83
2022/01/11 12:27:03;;;;;;;;;;;;;;;;;;5091422;28;19942;-82
2022/01/11 12:29:29;;;;;;;;;;;;;;;;;;5091641;28;20379;-83
2022/01/11 12:31:59;;;;;;;;;;;;;;;;;;5092724;28;20389;-83
2022/01/11 12:34:43;;;;;;;;;;;;;;;;;;5094006;28;19923;-84
2022/01/11 12:37:19;;;;;;;;;;;;;;;;;;5093904;28;19922;-83
2022/01/11 12:39:57;;;;;;;;;;;;;;;;;;5094252;28;19974;-83
2022/01/11 12:42:27;;;;;;;;;;;;;;;;;;5093630;28;19923;-82
2022/01/11 12:47:18;;;;;;;;;;;;;;;;;;5094142;28;20379;-82
2022/01/11 12:50:01;;;;;;;;;;;;;;;;;;5094064;28;19916;-82
2022/01/11 12:52:27;;;;;;;;;;;;;;;;;;5094022;28;19969;-81
2022/01/11 12:54:56;;;;;;;;;;;;;;;;;;5093945;28;19920;-81
2022/01/11 12:57:23;;;;;;;;;;;;;;;;;;5093904;28;20284;-82
2022/01/11 12:59:50;;;;;;;;;;;;;;;;;;5093678;28;20391;-82
2022/01/11 13:02:18;;;;;;;;;;;;;;;;;;5092941;28;19916;-82
2022/01/11 13:04:48;;;;;;;;;;;;;;;;;;5093639;28;19912;-81
2022/01/11 13:07:14;;;;;;;;;;;;;;;;;;5093899;28;19951;-81
2022/01/11 13:09:39;;;;;;;;;;;;;;;;;;5093639;28;19928;-82
2022/01/11 13:12:05;;;;;;;;;;;;;;;;;;5075454;28;20441;-80
2022/01/11 13:14:37;;;;;;;;;;;;;;;;;;5093593;28;20007;-82
2022/01/11 13:17:04;;;;;;;;;;;;;;;;;;5093421;28;19970;-81
2022/01/11 13:19:33;;;;;;;;;;;;;;;;;;5093011;28;19959;-80
2022/01/11 13:22:05;;;;;;;;;;;;;;;;;;5092680;28;19927;-83
2022/01/11 13:24:35;;;;;;;;;;;;;;;;;;5092231;28;19920;-86
2022/01/11 13:27:04;;;;;;;;;;;;;;;;;;5091920;28;19917;-86
2022/01/11 13:29:29;;;;;;;;;;;;;;;;;;5093338;28;19920;-86
2022/01/11 13:31:56;;;;;;;;;;;;;;;;;;5093516;28;19927;-85
2022/01/11 13:34:23;;;;;;;;;;;;;;;;;;5090863;28;19939;-87
2022/01/11 13:36:55;;;;;;;;;;;;;;;;;;5064812;28;19956;-86
2022/01/11 13:39:24;;;;;;;;;;;;;;;;;;5091039;28;19935;-82
2022/01/11 13:41:51;;;;;;;;;;;;;;;;;;5091131;28;19930;-85
2022/01/11 13:44:24;;;;;;;;;;;;;;;;;;5091644;28;19920;-82
2022/01/11 13:46:52;;;;;;;;;;;;;;;;;;5089997;28;20003;-82
2022/01/11 13:49:25;;;;;;;;;;;;;;;;;;5092057;28;20573;-82
2022/01/11 13:51:53;;;;;;;;;;;;;;;;;;5090303;28;19935;-82
2022/01/11 13:54:19;;;;;;;;;;;;;;;;;;5091768;28;19924;-81
2022/01/11 13:56:45;;;;;;;;;;;;;;;;;;5092219;28;19912;-83
2022/01/11 13:59:29;;;;;;;;;;;;;;;;;;5093119;28;19926;-83
2022/01/11 14:02:01;;;;;;;;;;;;;;;;;;5091884;28;19920;-86
2022/01/11 14:04:26;;;;;;;;;;;;;;;;;;5091529;28;19916;-81
2022/01/11 14:06:55;;;;;;;;;;;;;;;;;;5091837;28;19977;-82
2022/01/11 14:09:37;;;;;;;;;;;;;;;;;;5091652;28;20387;-84
2022/01/11 14:12:09;;;;;;;;;;;;;;;;;;5092447;28;19920;-83
2022/01/11 14:14:35;;;;;;;;;;;;;;;;;;5093284;28;19985;-83
2022/01/11 14:17:17;;;;;;;;;;;;;;;;;;5084905;28;19967;-80
2022/01/11 14:19:45;;;;;;;;;;;;;;;;;;5090644;28;19920;-83
2022/01/11 14:22:12;;;;;;;;;;;;;;;;;;5092770;28;19920;-86
2022/01/11 14:24:51;;;;;;;;;;;;;;;;;;5074006;28;20017;-83
2022/01/11 14:27:21;;;;;;;;;;;;;;;;;;5093561;28;19916;-86
2022/01/11 14:29:54;;;;;;;;;;;;;;;;;;5078470;28;19916;-84
2022/01/11 14:32:19;;;;;;;;;;;;;;;;;;5095514;28;19953;-84
2022/01/11 14:35:05;;;;;;;;;;;;;;;;;;5095263;28;19925;-85
2022/01/11 14:37:31;;;;;;;;;;;;;;;;;;5089673;28;20122;-83
2022/01/11 14:39:57;;;;;;;;;;;;;;;;;;5095172;28;20459;-84
2022/01/11 14:42:28;;;;;;;;;;;;;;;;;;5094354;28;20412;-84
2022/01/11 14:45:12;;;;;;;;;;;;;;;;;;5094483;28;20060;-84
2022/01/11 14:47:38;;;;;;;;;;;;;;;;;;5094027;28;20040;-83
2022/01/11 14:50:08;;;;;;;;;;;;;;;;;;5076556;28;19917;-83
2022/01/11 14:52:47;;;;;;;;;;;;;;;;;;5094729;28;19916;-82
2022/01/11 14:55:13;;;;;;;;;;;;;;;;;;5093697;28;19927;-83
2022/01/11 14:57:38;;;;;;;;;;;;;;;;;;5094926;28;19920;-83
2022/01/11 15:00:04;;;;;;;;;;;;;;;;;;5094472;28;19977;-85
2022/01/11 15:02:32;;;;;;;;;;;;;;;;;;5094388;28;19927;-82
2022/01/11 15:04:59;;;;;;;;;;;;;;;;;;5094199;28;19912;-84
2022/01/11 15:07:26;;;;;;;;;;;;;;;;;;5091925;28;19920;-81
2022/01/11 15:09:52;;;;;;;;;;;;;;;;;;5096266;28;19912;-84
2022/01/11 15:12:19;;;;;;;;;;;;;;;;;;5095364;28;20009;-85
2022/01/11 15:14:45;;;;;;;;;;;;;;;;;;5095408;28;19970;-82
2022/01/11 15:17:11;;;;;;;;;;;;;;;;;;5094804;28;19962;-82
2022/01/11 15:19:37;;;;;;;;;;;;;;;;;;5095762;28;20019;-82
2022/01/11 15:22:03;;;;;;;;;;;;;;;;;;5094947;28;20360;-87
2022/01/11 15:24:28;;;;;;;;;;;;;;;;;;5074041;28;19927;-86
2022/01/11 15:26:56;;;;;;;;;;;;;;;;;;5088251;28;19971;-84
2022/01/11 15:29:28;;;;;;;;;;;;;;;;;;5095259;28;19916;-86
2022/01/11 15:31:53;;;;;;;;;;;;;;;;;;5093085;28;19920;-86
2022/01/11 15:34:19;;;;;;;;;;;;;;;;;;5090768;28;19935;-88
2022/01/11 15:36:45;;;;;;;;;;;;;;;;;;5065685;28;19924;-86
2022/01/11 15:39:11;;;;;;;;;;;;;;;;;;5083163;28;19924;-84
2022/01/11 15:41:36;;;;;;;;;;;;;;;;;;5081699;28;19981;-85
2022/01/11 15:44:03;;;;;;;;;;;;;;;;;;5085052;28;19920;-85
2022/01/11 15:46:29;;;;;;;;;;;;;;;;;;5088005;28;20408;-86
2022/01/11 15:48:55;;;;;;;;;;;;;;;;;;5085834;28;19928;-83
2022/01/11 15:51:21;;;;;;;;;;;;;;;;;;5085392;28;19943;-83
2022/01/11 15:53:48;;;;;;;;;;;;;;;;;;5087745;28;19920;-84
2022/01/11 15:56:13;;;;;;;;;;;;;;;;;;5092805;28;19927;-82
2022/01/11 15:58:39;;;;;;;;;;;;;;;;;;5090166;28;19920;-84
2022/01/11 16:01:05;;;;;;;;;;;;;;;;;;5093342;28;19927;-82
2022/01/11 16:03:30;;;;;;;;;;;;;;;;;;5094445;28;20271;-82
2022/01/11 16:05:56;;;;;;;;;;;;;;;;;;5090774;28;19916;-82
2022/01/11 16:08:22;;;;;;;;;;;;;;;;;;5086055;28;19996;-82
2022/01/11 16:10:47;;;;;;;;;;;;;;;;;;5082888;28;19916;-83
2022/01/11 16:13:13;;;;;;;;;;;;;;;;;;5093824;28;19920;-82
2022/01/11 16:15:39;;;;;;;;;;;;;;;;;;5089260;28;20007;-84
2022/01/11 16:18:05;;;;;;;;;;;;;;;;;;5081489;28;20419;-83
2022/01/11 16:20:30;;;;;;;;;;;;;;;;;;5085874;28;19920;-82
2022/01/11 16:22:56;;;;;;;;;;;;;;;;;;5094449;28;20429;-83
2022/01/11 16:25:24;;;;;;;;;;;;;;;;;;5070392;28;19917;-84
2022/01/11 16:27:50;;;;;;;;;;;;;;;;;;5088295;28;19928;-83
2022/01/11 16:30:15;;;;;;;;;;;;;;;;;;5093736;28;19912;-85
2022/01/11 16:32:41;;;;;;;;;;;;;;;;;;5093417;28;19923;-86
2022/01/11 16:35:08;;;;;;;;;;;;;;;;;;5091453;28;19916;-80
2022/01/11 16:37:34;;;;;;;;;;;;;;;;;;5094227;28;19926;-83
2022/01/11 16:40:08;;;;;;;;;;;;;;;;;;5074044;28;20184;-82
2022/01/11 16:42:48;;;;;;;;;;;;;;;;;;5092108;28;20380;-83
2022/01/11 16:45:18;;;;;;;;;;;;;;;;;;5075196;28;20006;-82
2022/01/11 16:47:44;;;;;;;;;;;;;;;;;;5094305;28;19916;-82
2022/01/11 16:50:13;;;;;;;;;;;;;;;;;;5075073;28;19920;-83